Time;durP1;ratioP1;P1;durP2;ratioP2;P2;SDS_P1;SDS_P2;PMS_P1;PMS_P2;Temp;Humidity;BMP_temperature;BMP_pressure;BME280_temperature;BME280_humidity;BME280_pressure;Samples;Min_cycle;Max_cycle;Signal;HPM_P1;HPM_P2
2022/07/15 00:00:10;;;;;;;6.50;1.98;;;;;;;25.74;43.31;99521.28;4393189;32;32727;-76
2022/07/15 00:02:38;;;;;;;3.78;1.70;;;;;;;24.97;45.08;99553.69;4407043;32;34017;-75
2022/07/15 00:05:07;;;;;;;3.83;1.70;;;;;;;23.73;47.97;99570.50;4399312;32;34660;-75
2022/07/15 00:07:36;;;;;;;4.15;1.50;;;;;;;24.02;47.34;99575.44;4408134;32;34465;-75
2022/07/15 00:10:13;;;;;;;3.15;1.30;;;;;;;23.80;47.91;99547.53;4407554;32;34022;-75
2022/07/15 00:12:42;;;;;;;2.53;1.60;;;;;;;23.40;49.02;99533.03;4406742;32;33837;-75
2022/07/15 00:15:10;;;;;;;4.80;1.60;;;;;;;23.87;47.91;99538.63;4381138;32;32519;-76
2022/07/15 00:17:39;;;;;;;5.20;1.80;;;;;;;25.00;45.13;99546.56;4408087;32;34269;-76
2022/07/15 00:20:07;;;;;;;3.67;1.92;;;;;;;24.72;45.69;99546.19;4384574;32;32284;-75
2022/07/15 00:22:35;;;;;;;5.45;1.75;;;;;;;23.98;47.89;99542.00;4393720;32;33661;-75
2022/07/15 00:25:04;;;;;;;3.80;1.90;;;;;;;23.84;48.24;99538.69;4407348;32;34212;-75
2022/07/15 00:27:31;;;;;;;7.87;1.70;;;;;;;23.24;50.94;99529.69;4399866;32;34156;-75
2022/07/15 00:29:59;;;;;;;4.22;1.80;;;;;;;22.75;51.73;99516.94;4406918;32;33448;-75
2022/07/15 00:32:26;;;;;;;3.00;1.50;;;;;;;22.91;51.61;99517.69;4406858;32;34036;-75
2022/07/15 00:34:54;;;;;;;3.72;1.87;;;;;;;23.10;51.07;99519.28;4406488;32;34504;-75
2022/07/15 00:37:22;;;;;;;3.55;1.80;;;;;;;23.03;51.31;99495.59;4406650;32;33530;-75
2022/07/15 00:39:49;;;;;;;4.45;1.62;;;;;;;22.82;52.19;99486.09;4407003;32;33813;-75
2022/07/15 00:45:03;;;;;;;3.28;1.60;;;;;;;22.94;52.06;99507.94;4405581;32;34009;-76
2022/07/15 00:47:31;;;;;;;3.95;1.67;;;;;;;23.14;51.04;99483.09;4399564;32;33256;-76
2022/07/15 00:49:58;;;;;;;2.40;1.50;;;;;;;23.16;52.04;99491.91;4401995;32;34017;-76
2022/07/15 00:52:27;;;;;;;3.28;1.37;;;;;;;23.41;50.82;99491.59;4403298;32;34746;-79
2022/07/15 00:54:58;;;;;;;3.85;1.85;;;;;;;23.41;50.89;99491.59;4392358;32;33889;-74
2022/07/15 00:57:27;;;;;;;4.45;1.98;;;;;;;23.70;50.21;99492.13;4391217;32;33351;-76
2022/07/15 00:59:56;;;;;;;2.58;1.50;;;;;;;23.60;50.64;99477.25;4393605;32;33705;-78
2022/07/15 01:02:23;;;;;;;3.40;1.62;;;;;;;23.71;50.46;99485.03;4402649;32;34778;-75
2022/07/15 01:04:52;;;;;;;5.93;1.80;;;;;;;23.86;50.07;99491.94;4403715;32;34292;-74
2022/07/15 01:07:20;;;;;;;2.65;1.58;;;;;;;24.13;49.15;99515.31;4390901;32;31878;-75
2022/07/15 01:09:47;;;;;;;9.43;2.05;;;;;;;24.53;48.46;99522.66;4405191;32;34177;-77
2022/07/15 01:12:15;;;;;;;3.53;1.90;;;;;;;23.50;50.89;99533.78;4407646;32;34818;-78
2022/07/15 01:14:43;;;;;;;6.05;2.08;;;;;;;23.81;50.31;99530.78;4396227;32;34821;-78
2022/07/15 01:17:11;;;;;;;5.37;2.22;;;;;;;24.02;49.92;99525.19;4393741;32;33304;-75
2022/07/15 01:19:40;;;;;;;4.25;2.00;;;;;;;23.71;51.08;99548.50;4380633;32;33986;-77
2022/07/15 01:22:07;;;;;;;3.78;1.62;;;;;;;23.84;51.23;99543.97;4403855;32;32734;-76
2022/07/15 01:24:35;;;;;;;5.15;1.90;;;;;;;24.23;50.27;99549.59;4406433;32;34880;-76
2022/07/15 01:27:03;;;;;;;6.03;2.28;;;;;;;23.98;50.35;99565.81;4402096;32;33705;-74
2022/07/15 01:29:31;;;;;;;3.47;2.03;;;;;;;24.53;48.99;99562.38;4401340;32;33682;-77
2022/07/15 01:31:58;;;;;;;4.85;2.22;;;;;;;25.20;47.02;99555.94;4404639;32;34193;-77
2022/07/15 01:34:27;;;;;;;4.30;2.00;;;;;;;25.36;46.16;99560.03;4403356;32;34846;-75
2022/07/15 01:36:55;;;;;;;4.12;1.98;;;;;;;25.39;45.96;99560.00;4405041;32;34405;-77
2022/07/15 01:39:23;;;;;;;6.20;2.30;;;;;;;25.06;46.66;99548.25;4404532;32;33459;-74
2022/07/15 01:42:05;;;;;;;7.18;2.55;;;;;;;24.58;48.50;99543.75;4404551;32;33809;-77
2022/07/15 01:44:33;;;;;;;6.12;2.72;;;;;;;24.68;48.50;99545.34;4407524;32;34451;-76
2022/07/15 01:47:00;;;;;;;5.18;2.00;;;;;;;24.81;48.26;99551.31;4385227;32;34071;-78
2022/07/15 01:49:32;;;;;;;5.37;2.30;;;;;;;24.59;49.04;99545.53;4398351;32;34018;-77
2022/07/15 01:52:01;;;;;;;5.22;2.10;;;;;;;24.52;49.18;99544.75;4396941;32;34838;-78
2022/07/15 01:54:30;;;;;;;8.80;2.33;;;;;;;25.03;48.08;99551.81;4402503;32;34252;-75
2022/07/15 01:56:58;;;;;;;5.65;2.53;;;;;;;24.60;48.79;99535.81;4402914;32;33510;-76
2022/07/15 01:59:27;;;;;;;7.65;2.40;;;;;;;24.87;48.18;99543.25;4400221;32;32490;-75
2022/07/15 02:01:57;;;;;;;4.43;2.17;;;;;;;24.51;49.15;99548.31;4402171;32;34685;-74
2022/07/15 02:04:26;;;;;;;4.37;2.10;;;;;;;24.17;50.79;99566.44;4399510;32;34059;-75
2022/07/15 02:06:53;;;;;;;4.22;2.20;;;;;;;24.60;50.34;99557.00;4386511;32;33486;-77
2022/07/15 02:09:21;;;;;;;3.92;2.10;;;;;;;25.13;48.94;99549.88;4404942;32;34314;-79
2022/07/15 02:11:49;;;;;;;4.57;2.00;;;;;;;25.08;48.76;99527.87;4404481;32;33854;-76
2022/07/15 02:14:17;;;;;;;3.58;1.95;;;;;;;25.15;48.08;99529.53;4402909;32;34053;-78
2022/07/15 02:16:47;;;;;;;3.15;1.90;;;;;;;25.38;47.50;99541.47;4403528;32;34635;-78
2022/07/15 02:19:15;;;;;;;3.08;1.60;;;;;;;25.06;48.20;99535.84;4405026;32;34028;-80
2022/07/15 02:21:43;;;;;;;3.10;1.80;;;;;;;25.43;47.55;99545.78;4404274;32;32459;-78
2022/07/15 02:24:10;;;;;;;3.67;1.95;;;;;;;25.36;46.94;99556.53;4405024;32;34649;-78
2022/07/15 02:26:38;;;;;;;3.50;1.65;;;;;;;25.44;46.24;99567.84;4405263;32;33631;-77
2022/07/15 02:29:06;;;;;;;5.62;2.20;;;;;;;25.36;46.77;99586.56;4406702;32;33941;-77
2022/07/15 02:31:35;;;;;;;4.10;1.77;;;;;;;25.64;46.85;99608.12;4403291;32;33997;-78
2022/07/15 02:34:03;;;;;;;4.12;1.77;;;;;;;25.61;46.36;99616.16;4402934;32;34594;-79
2022/07/15 02:36:31;;;;;;;7.03;1.50;;;;;;;25.55;45.02;99640.13;4403379;32;33568;-78
2022/07/15 02:39:00;;;;;;;2.70;1.50;;;;;;;25.15;45.64;99639.94;4405793;32;34576;-78
2022/07/15 02:41:30;;;;;;;1.98;1.08;;;;;;;24.93;44.98;99651.78;4406606;32;33798;-78
2022/07/15 02:44:02;;;;;;;2.20;1.10;;;;;;;25.05;43.73;99644.53;4401781;32;34067;-77
2022/07/15 02:46:31;;;;;;;2.80;1.27;;;;;;;25.49;41.84;99634.94;4407390;32;32707;-78
2022/07/15 02:48:59;;;;;;;3.90;1.20;;;;;;;25.37;41.00;99629.88;4404528;32;33304;-76
2022/07/15 02:51:27;;;;;;;1.30;0.90;;;;;;;24.87;41.62;99640.41;4402717;32;34592;-79
2022/07/15 02:53:54;;;;;;;2.72;0.80;;;;;;;25.10;41.03;99637.38;4404083;32;34208;-79
2022/07/15 02:56:23;;;;;;;1.95;0.90;;;;;;;25.30;39.93;99639.72;4405302;32;33305;-77
2022/07/15 02:58:50;;;;;;;3.08;0.80;;;;;;;25.22;40.15;99634.53;4402299;32;83048;-77
2022/07/15 03:01:18;;;;;;;3.22;0.88;;;;;;;25.47;39.63;99636.75;4403662;32;34593;-79
2022/07/15 03:03:46;;;;;;;3.37;0.70;;;;;;;25.59;38.97;99631.19;4405776;32;34290;-77
2022/07/15 03:06:15;;;;;;;1.40;0.80;;;;;;;25.55;38.93;99621.56;4390924;32;33772;-79
2022/07/15 03:08:42;;;;;;;1.37;0.80;;;;;;;25.29;39.69;99636.19;4400210;32;34015;-78
2022/07/15 03:11:11;;;;;;;2.47;0.80;;;;;;;25.40;39.26;99624.50;4401507;32;33788;-75
2022/07/15 03:13:40;;;;;;;2.10;0.85;;;;;;;25.63;39.04;99627.63;4391499;32;33961;-78
2022/07/15 03:16:08;;;;;;;1.30;0.70;;;;;;;25.34;39.50;99627.28;4403292;32;33538;-75
2022/07/15 03:18:37;;;;;;;1.20;0.60;;;;;;;25.75;38.91;99633.56;4403843;32;34105;-79
2022/07/15 03:21:04;;;;;;;1.98;0.73;;;;;;;25.26;39.96;99638.88;4404621;32;33511;-79
2022/07/15 03:23:32;;;;;;;2.35;0.80;;;;;;;25.85;38.77;99649.28;4405005;32;34892;-79
2022/07/15 03:26:01;;;;;;;1.23;0.90;;;;;;;25.76;38.95;99651.25;4406093;32;34267;-78
2022/07/15 03:28:29;;;;;;;2.62;0.90;;;;;;;25.78;39.08;99646.78;4402350;32;34563;-77
2022/07/15 03:30:57;;;;;;;1.60;0.88;;;;;;;25.55;39.54;99642.78;4403337;32;34591;-77
2022/07/15 03:33:25;;;;;;;4.50;1.00;;;;;;;25.92;38.96;99649.16;4406841;32;32758;-78
2022/07/15 03:35:52;;;;;;;3.22;0.88;;;;;;;25.44;39.95;99636.78;4403211;32;33684;-78
2022/07/15 03:38:21;;;;;;;3.58;1.10;;;;;;;25.96;39.14;99640.25;4402323;32;33429;-76
2022/07/15 03:40:49;;;;;;;0.95;0.68;;;;;;;26.34;38.33;99636.75;4406406;32;33930;-78
2022/07/15 03:43:17;;;;;;;2.33;0.85;;;;;;;26.37;38.26;99647.31;4406243;32;34094;-78
2022/07/15 03:45:45;;;;;;;2.05;1.00;;;;;;;26.19;38.83;99642.41;4404996;32;33756;-77
2022/07/15 03:48:12;;;;;;;2.90;0.95;;;;;;;26.08;39.29;99640.00;4407790;32;34003;-76
2022/07/15 03:50:40;;;;;;;3.25;1.08;;;;;;;25.67;40.41;99649.63;4408037;32;34050;-78
2022/07/15 03:53:08;;;;;;;2.87;1.02;;;;;;;25.11;42.19;99645.31;4394456;32;34019;-75
2022/07/15 03:55:37;;;;;;;2.53;0.80;;;;;;;25.41;41.93;99658.94;4407343;32;34173;-78
2022/07/15 03:58:05;;;;;;;3.17;1.25;;;;;;;24.86;43.67;99681.03;4404647;32;34027;-75
2022/07/15 04:00:33;;;;;;;2.45;1.02;;;;;;;25.15;43.11;99688.56;4409044;32;34864;-77
2022/07/15 04:03:01;;;;;;;3.20;0.90;;;;;;;25.03;43.73;99688.72;4407435;32;34122;-79
2022/07/15 04:05:29;;;;;;;2.03;1.00;;;;;;;25.38;43.21;99677.59;4407560;32;33100;-78
2022/07/15 04:07:56;;;;;;;3.83;1.25;;;;;;;26.11;41.15;99676.22;4407317;32;34561;-78
2022/07/15 04:10:25;;;;;;;2.35;0.90;;;;;;;24.95;43.93;99677.38;4408059;32;34596;-77
2022/07/15 04:12:53;;;;;;;2.72;0.85;;;;;;;25.69;42.02;99669.94;4407285;32;34183;-78
2022/07/15 04:15:20;;;;;;;2.75;1.12;;;;;;;25.46;42.38;99665.06;4407548;32;34286;-77
2022/07/15 04:17:48;;;;;;;2.28;1.00;;;;;;;24.01;45.80;99663.69;4407444;32;33790;-78
2022/07/15 04:20:15;;;;;;;1.62;0.70;;;;;;;25.10;43.73;99671.84;4407678;32;33963;-75
2022/07/15 04:22:46;;;;;;;3.05;0.80;;;;;;;24.74;44.54;99666.22;4407339;32;34970;-76
2022/07/15 04:25:17;;;;;;;2.90;0.90;;;;;;;25.19;43.47;99678.75;4407238;32;32767;-76
2022/07/15 04:27:45;;;;;;;2.47;0.77;;;;;;;24.87;44.12;99688.97;4403190;32;34542;-76
2022/07/15 04:30:13;;;;;;;3.85;0.73;;;;;;;23.73;47.48;99692.16;4407087;32;33928;-76
2022/07/15 04:32:41;;;;;;;3.20;1.00;;;;;;;23.26;48.24;99686.47;4406002;32;33703;-77
2022/07/15 04:35:10;;;;;;;2.65;0.98;;;;;;;23.96;46.94;99691.09;4401059;32;33868;-75
2022/07/15 04:37:37;;;;;;;2.35;0.82;;;;;;;24.16;46.53;99689.06;4406838;32;33374;-74
2022/07/15 04:40:07;;;;;;;2.50;1.12;;;;;;;24.34;46.06;99703.84;4392372;32;33406;-77
2022/07/15 04:42:36;;;;;;;2.42;1.10;;;;;;;24.05;46.98;99689.19;4399502;32;34233;-77
2022/07/15 04:45:07;;;;;;;3.53;1.30;;;;;;;23.56;48.51;99692.34;4403204;32;33674;-76
2022/07/15 04:47:35;;;;;;;3.10;1.30;;;;;;;23.29;49.54;99702.28;4400593;32;33812;-77
2022/07/15 04:52:50;;;;;;;2.67;1.02;;;;;;;23.70;49.04;99694.84;4400116;32;34761;-76
2022/07/15 04:55:17;;;;;;;3.47;1.23;;;;;;;23.47;49.74;99697.72;4399269;32;33750;-76
2022/07/15 04:57:47;;;;;;;3.30;1.20;;;;;;;23.25;50.82;99691.75;4401336;32;33791;-77
2022/07/15 05:00:15;;;;;;;3.05;1.00;;;;;;;23.33;50.79;99695.19;4382747;32;33454;-77
2022/07/15 05:02:43;;;;;;;2.92;1.17;;;;;;;23.19;51.37;99695.31;4393705;32;33805;-74
2022/07/15 05:05:10;;;;;;;2.22;1.15;;;;;;;22.81;52.66;99707.00;4390955;32;33635;-77
2022/07/15 05:07:38;;;;;;;3.40;1.20;;;;;;;22.72;53.10;99696.53;4391426;32;33872;-75
2022/07/15 05:10:06;;;;;;;2.53;1.35;;;;;;;22.86;52.95;99699.94;4369586;32;34030;-77
2022/07/15 05:12:35;;;;;;;2.83;1.50;;;;;;;22.59;53.65;99695.72;4393346;32;34052;-77
2022/07/15 05:15:03;;;;;;;3.12;1.52;;;;;;;22.54;54.11;99702.78;4380282;32;33525;-78
2022/07/15 05:17:30;;;;;;;4.05;2.03;;;;;;;22.72;53.70;99712.37;4391884;32;34775;-79
2022/07/15 05:19:58;;;;;;;3.25;1.52;;;;;;;22.65;53.93;99705.38;4393647;32;33932;-78
2022/07/15 05:22:26;;;;;;;4.15;1.55;;;;;;;22.25;55.64;99724.03;4390051;32;35084;-79
2022/07/15 05:24:53;;;;;;;6.18;1.92;;;;;;;22.31;56.21;99726.63;4374713;32;33668;-78
2022/07/15 05:27:21;;;;;;;6.28;1.42;;;;;;;21.76;58.71;99731.16;4388720;32;33890;-75
2022/07/15 05:29:49;;;;;;;3.33;1.98;;;;;;;21.41;60.48;99732.06;4395627;32;34749;-74
2022/07/15 05:32:16;;;;;;;3.30;1.70;;;;;;;21.82;59.31;99719.72;4388823;32;34200;-75
2022/07/15 05:34:44;;;;;;;8.32;2.00;;;;;;;21.93;59.13;99733.78;4389630;32;33522;-72
2022/07/15 05:37:13;;;;;;;3.67;1.80;;;;;;;21.39;61.09;99733.81;4392521;32;34719;-76
2022/07/15 05:39:53;;;;;;;3.03;1.48;;;;;;;21.52;61.31;99731.22;4391233;32;33848;-76
2022/07/15 05:42:23;;;;;;;3.10;1.77;;;;;;;21.63;60.86;99739.97;4391154;32;34890;-74
2022/07/15 05:44:51;;;;;;;4.70;2.12;;;;;;;21.33;62.39;99749.63;4379345;32;34267;-75
2022/07/15 05:47:18;;;;;;;2.45;1.40;;;;;;;21.09;63.15;99753.09;4390139;32;32446;-75
2022/07/15 05:49:47;;;;;;;4.03;1.87;;;;;;;21.34;62.30;99751.41;4379467;32;34763;-74
2022/07/15 05:52:14;;;;;;;3.72;1.90;;;;;;;20.80;64.36;99753.06;4396949;32;34161;-77
2022/07/15 05:54:42;;;;;;;5.22;1.73;;;;;;;21.15;63.33;99746.97;4394062;32;33980;-77
2022/07/15 05:57:10;;;;;;;4.50;1.90;;;;;;;21.27;62.80;99765.44;4395780;32;35190;-74
2022/07/15 05:59:38;;;;;;;4.85;2.20;;;;;;;21.32;62.91;99784.75;4396741;32;34894;-74
2022/07/15 06:02:06;;;;;;;4.75;1.60;;;;;;;20.85;64.23;99787.31;4395462;32;34097;-74
2022/07/15 06:04:35;;;;;;;5.00;1.92;;;;;;;20.96;64.29;99797.00;4396369;32;32790;-74
2022/07/15 06:07:03;;;;;;;3.35;1.70;;;;;;;20.91;64.99;99809.25;4392006;32;33657;-74
2022/07/15 06:09:31;;;;;;;4.03;1.95;;;;;;;20.82;66.04;99798.69;4394459;32;34013;-77
2022/07/15 06:11:59;;;;;;;3.92;1.90;;;;;;;20.77;66.17;99789.94;4391997;32;34656;-74
2022/07/15 06:14:27;;;;;;;6.07;1.98;;;;;;;21.14;65.07;99800.53;4393732;32;33870;-75
2022/07/15 06:17:05;;;;;;;4.37;2.08;;;;;;;21.24;63.92;99789.13;4393370;32;33349;-74
2022/07/15 06:19:33;;;;;;;4.90;2.28;;;;;;;21.25;64.48;99793.53;4396013;32;33356;-75
2022/07/15 06:22:01;;;;;;;2.97;1.80;;;;;;;20.92;65.51;99800.50;4395618;32;34764;-74
2022/07/15 06:24:29;;;;;;;5.55;2.20;;;;;;;21.35;63.72;99802.34;4399936;32;33663;-74
2022/07/15 06:26:56;;;;;;;5.18;2.12;;;;;;;21.47;62.97;99801.50;4398479;32;33920;-75
2022/07/15 06:29:24;;;;;;;5.30;1.98;;;;;;;21.47;63.00;99814.66;4393497;32;34520;-75
2022/07/15 06:31:54;;;;;;;4.47;2.22;;;;;;;21.28;63.97;99819.00;4402905;32;34654;-75
2022/07/15 06:34:22;;;;;;;4.35;2.08;;;;;;;21.53;62.88;99819.94;4397160;32;33550;-73
2022/07/15 06:36:50;;;;;;;3.25;1.75;;;;;;;21.82;61.76;99797.97;4393235;32;34023;-75
2022/07/15 06:39:20;;;;;;;3.80;1.90;;;;;;;21.60;62.52;99801.50;4392174;32;34368;-77
2022/07/15 06:41:50;;;;;;;4.30;2.05;;;;;;;21.53;62.99;99825.22;4394588;32;33552;-73
2022/07/15 06:44:18;;;;;;;3.62;1.95;;;;;;;21.77;62.46;99841.03;4393674;32;33392;-75
2022/07/15 06:46:50;;;;;;;3.90;2.08;;;;;;;21.74;62.57;99859.47;4394042;32;34589;-74
2022/07/15 06:49:27;;;;;;;3.60;2.00;;;;;;;21.51;63.39;99869.13;4391017;32;33846;-75
2022/07/15 06:51:54;;;;;;;5.82;2.37;;;;;;;22.11;61.20;99867.38;4401939;32;34204;-75
2022/07/15 06:54:22;;;;;;;6.95;2.83;;;;;;;22.15;61.29;99884.94;4394521;32;33721;-76
2022/07/15 06:56:50;;;;;;;4.70;1.62;;;;;;;21.86;62.25;99910.47;4393691;32;33539;-77
2022/07/15 06:59:18;;;;;;;5.55;2.30;;;;;;;21.48;63.88;99921.81;4395880;32;34615;-76
2022/07/15 07:01:50;;;;;;;5.50;2.08;;;;;;;21.62;63.87;99920.13;4400671;32;33014;-76
2022/07/15 07:05:09;;;;;;;4.45;2.35;;;;;;;21.70;63.99;99934.19;4391494;32;34476;-75
2022/07/15 07:07:36;;;;;;;3.95;2.40;;;;;;;20.83;67.27;99929.47;4396733;32;34821;-74
2022/07/15 07:10:05;;;;;;;3.25;2.20;;;;;;;20.50;68.24;99938.91;4393945;32;34011;-75
2022/07/15 07:12:32;;;;;;;6.10;2.42;;;;;;;20.29;68.85;99947.50;4393877;32;33947;-76
2022/07/15 07:15:02;;;;;;;4.20;2.50;;;;;;;21.13;66.23;99941.00;4381699;32;33265;-75
2022/07/15 07:17:29;;;;;;;5.93;3.20;;;;;;;21.24;65.43;99933.16;4395936;32;34521;-75
2022/07/15 07:19:56;;;;;;;7.30;2.65;;;;;;;21.05;66.28;99932.19;4401902;32;33751;-75
2022/07/15 07:22:24;;;;;;;4.47;2.42;;;;;;;21.31;65.99;99919.13;4396068;32;34072;-76
2022/07/15 07:24:53;;;;;;;4.45;2.58;;;;;;;21.39;65.97;99927.94;4394600;32;34245;-76
2022/07/15 07:27:20;;;;;;;6.22;3.12;;;;;;;21.22;67.54;99938.41;4393256;32;33752;-77
2022/07/15 07:29:48;;;;;;;5.40;2.50;;;;;;;21.28;67.49;99946.34;4400386;32;33859;-75
2022/07/15 07:32:15;;;;;;;4.12;2.58;;;;;;;21.47;67.00;99954.34;4394704;32;34156;-77
2022/07/15 07:34:42;;;;;;;4.57;2.60;;;;;;;20.96;67.72;99944.47;4396582;32;33554;-77
2022/07/15 07:37:10;;;;;;;5.03;2.60;;;;;;;20.86;67.62;99945.31;4389673;32;34497;-77
2022/07/15 07:39:38;;;;;;;4.25;2.67;;;;;;;21.08;67.36;99945.41;4394409;32;34527;-76
2022/07/15 07:42:06;;;;;;;5.37;2.55;;;;;;;21.48;65.73;99935.00;4386525;32;33953;-77
2022/07/15 07:44:33;;;;;;;4.50;2.78;;;;;;;21.21;65.99;99936.66;4397531;32;34340;-78
2022/07/15 07:47:01;;;;;;;7.12;3.10;;;;;;;21.32;65.75;99942.81;4393013;32;33692;-76
2022/07/15 07:49:29;;;;;;;4.55;2.62;;;;;;;21.61;64.86;99955.25;4393994;32;34167;-78
2022/07/15 07:52:04;;;;;;;5.35;2.70;;;;;;;21.27;65.65;99960.41;4397723;32;33833;-78
2022/07/15 07:54:32;;;;;;;5.40;2.50;;;;;;;21.64;64.47;99944.72;4383880;32;34299;-79
2022/07/15 07:57:00;;;;;;;7.03;3.03;;;;;;;21.84;64.31;99928.91;4390181;32;33599;-80
2022/07/15 07:59:28;;;;;;;5.50;3.12;;;;;;;21.44;65.48;99941.16;4391259;32;33515;-77
2022/07/15 08:01:55;;;;;;;5.22;2.87;;;;;;;21.79;63.96;99920.16;4393048;32;33988;-77
2022/07/15 08:04:24;;;;;;;6.53;3.25;;;;;;;22.03;63.95;99937.72;4392607;32;33623;-77
2022/07/15 08:06:52;;;;;;;6.72;3.50;;;;;;;22.27;63.96;99941.25;4393381;32;32437;-77
2022/07/15 08:09:19;;;;;;;6.18;3.60;;;;;;;22.22;64.57;99935.09;4388916;32;32046;-78
2022/07/15 08:11:47;;;;;;;6.85;3.80;;;;;;;22.25;63.54;99948.31;4391425;32;32991;-78
2022/07/15 08:14:15;;;;;;;6.03;3.55;;;;;;;21.68;67.56;99964.94;4399771;32;33690;-78
2022/07/15 08:16:43;;;;;;;7.37;3.90;;;;;;;21.50;67.47;99964.88;4397603;32;33192;-77
2022/07/15 08:19:16;;;;;;;7.95;4.05;;;;;;;21.50;67.63;99978.06;4395903;32;32734;-77
2022/07/15 08:21:44;;;;;;;6.93;4.25;;;;;;;21.74;67.69;99970.22;4390847;32;34820;-76
2022/07/15 08:24:12;;;;;;;7.43;4.60;;;;;;;21.01;70.52;99982.25;4394311;32;33626;-76
2022/07/15 08:26:40;;;;;;;6.78;4.10;;;;;;;21.52;69.65;99981.59;4377530;32;33738;-77
2022/07/15 08:29:07;;;;;;;6.40;4.72;;;;;;;20.99;71.78;99973.41;4392459;32;33703;-74
2022/07/15 08:31:36;;;;;;;10.48;4.50;;;;;;;21.25;71.69;99983.22;4391976;32;34066;-75
2022/07/15 08:34:04;;;;;;;9.25;4.97;;;;;;;21.24;72.81;99981.44;4392690;32;33431;-77
2022/07/15 08:36:32;;;;;;;9.20;5.03;;;;;;;21.57;72.19;99985.97;4393640;32;34426;-77
2022/07/15 08:38:59;;;;;;;10.25;4.55;;;;;;;21.38;73.58;99985.03;4401171;32;33785;-77
2022/07/15 08:41:27;;;;;;;10.35;4.87;;;;;;;21.41;71.83;99974.50;4396664;32;34082;-77
2022/07/15 08:43:54;;;;;;;9.50;5.18;;;;;;;21.54;72.44;99974.59;4380931;32;34465;-77
2022/07/15 08:46:26;;;;;;;13.35;5.35;;;;;;;21.97;70.61;99972.00;4393626;32;34483;-79
2022/07/15 08:48:58;;;;;;;6.43;4.72;;;;;;;21.94;71.77;99966.72;4384571;32;33981;-77
2022/07/15 08:51:26;;;;;;;7.35;4.50;;;;;;;21.62;73.29;99995.69;4390080;32;33827;-76
2022/07/15 08:53:55;;;;;;;7.32;4.45;;;;;;;21.51;72.56;100003.53;4381303;32;33706;-77
2022/07/15 08:56:23;;;;;;;10.55;4.95;;;;;;;21.64;70.50;99992.16;4392253;32;33967;-76
2022/07/15 08:58:52;;;;;;;10.27;4.95;;;;;;;20.89;74.06;100000.59;4397515;32;34511;-79
2022/07/15 09:01:26;;;;;;;;;;;;;;;21.30;72.72;100005.19;4389306;32;33904;-77
2022/07/15 09:03:54;;;;;;;9.05;5.32;;;;;;;21.88;70.35;99995.72;4392145;32;33496;-77
2022/07/15 09:06:36;;;;;;;8.30;5.07;;;;;;;21.58;70.62;99997.44;4390778;32;33772;-77
2022/07/15 09:09:28;;;;;;;6.72;5.00;;;;;;;21.21;72.22;99986.72;4397814;32;34856;-77
2022/07/15 09:12:03;;;;;;;9.88;5.70;;;;;;;21.22;72.61;100004.28;4398026;32;34202;-76
2022/07/15 09:14:44;;;;;;;5.87;5.28;;;;;;;21.08;73.70;100032.31;4383844;32;32569;-75
2022/07/15 09:17:12;;;;;;;7.78;6.50;;;;;;;21.47;72.10;100022.88;4390980;32;34672;-77
2022/07/15 09:20:09;;;;;;;9.98;5.55;;;;;;;21.77;71.82;100004.50;4388186;32;34219;-77
2022/07/15 09:22:59;;;;;;;6.65;4.97;;;;;;;22.53;68.75;99976.44;4390860;32;33701;-77
2022/07/15 09:25:28;;;;;;;9.80;5.22;;;;;;;22.43;66.86;99993.19;4391236;32;33752;-78
2022/07/15 09:27:57;;;;;;;6.10;5.07;;;;;;;23.22;64.62;99993.91;4391436;32;34033;-77
2022/07/15 09:36:14;;;;;;;9.80;5.57;;;;;;;21.26;70.56;100021.84;4387834;32;33436;-80
2022/07/15 09:38:50;;;;;;;6.78;5.00;;;;;;;21.36;71.30;100033.31;4391463;32;32400;-80
2022/07/15 09:41:18;;;;;;;7.65;4.60;;;;;;;21.30;72.43;100028.91;4402526;32;33167;-78
2022/07/15 09:43:49;;;;;;;12.40;4.70;;;;;;;21.06;70.36;100034.06;4401250;32;34002;-78
2022/07/15 09:46:19;;;;;;;6.37;4.72;;;;;;;21.13;71.07;100041.09;4397332;32;34344;-77
2022/07/15 09:48:49;;;;;;;6.82;4.87;;;;;;;21.24;69.32;100039.41;4396634;32;33834;-78
2022/07/15 09:51:18;;;;;;;6.70;5.00;;;;;;;21.52;69.96;100034.31;4405310;32;34456;-81
2022/07/15 09:53:46;;;;;;;6.43;4.40;;;;;;;21.59;70.05;100031.72;4393835;32;34040;-76
2022/07/15 09:56:21;;;;;;;7.20;4.62;;;;;;;21.49;68.63;100045.72;4408478;32;33367;-78
2022/07/15 09:58:50;;;;;;;7.53;4.53;;;;;;;21.85;67.26;100032.66;4399443;32;33795;-78
2022/07/15 10:01:18;;;;;;;6.18;4.57;;;;;;;22.32;66.37;100021.31;4401565;32;33959;-76
2022/07/15 10:03:46;;;;;;;6.35;4.22;;;;;;;23.28;61.22;100008.88;4393335;32;34266;-76
2022/07/15 10:06:14;;;;;;;5.87;3.95;;;;;;;23.58;59.58;99983.19;4382831;32;33643;-79
2022/07/15 10:08:47;;;;;;;11.23;4.35;;;;;;;23.47;59.28;99956.78;4391847;32;34227;-80
2022/07/15 10:11:16;;;;;;;5.90;3.12;;;;;;;23.54;57.40;99940.00;4405298;32;33956;-79
2022/07/15 10:14:02;;;;;;;8.77;4.20;;;;;;;23.68;55.53;99935.53;4389452;32;34137;-79
2022/07/15 10:16:45;;;;;;;6.97;4.37;;;;;;;22.88;61.02;99971.97;4407911;32;34243;-79
2022/07/15 10:19:46;;;;;;;7.43;4.35;;;;;;;22.34;65.22;99990.53;4402236;32;33456;-76
2022/07/15 10:22:40;;;;;;;9.73;4.25;;;;;;;22.22;65.50;99985.22;4391862;32;34840;-79
2022/07/15 10:25:26;;;;;;;7.53;4.40;;;;;;;22.94;62.41;99972.81;4403458;32;34667;-78
2022/07/15 10:28:06;;;;;;;10.02;3.75;;;;;;;24.11;58.57;99951.09;4407695;32;35696;-78
2022/07/15 10:30:33;;;;;;;6.68;3.03;;;;;;;24.71;55.80;99931.16;4404791;32;34319;-78
2022/07/15 10:33:15;;;;;;;6.72;3.55;;;;;;;24.57;50.90;99923.38;4405268;32;33503;-78
2022/07/15 10:35:48;;;;;;;5.43;2.35;;;;;;;24.33;53.88;99927.09;4403896;32;33751;-77
2022/07/15 10:38:30;;;;;;;5.28;1.92;;;;;;;24.45;46.50;99929.59;4406700;32;33249;-78
2022/07/15 10:41:01;;;;;;;6.43;2.35;;;;;;;24.66;43.20;99938.25;4405251;32;34220;-78
2022/07/15 10:43:50;;;;;;;6.60;2.20;;;;;;;24.72;43.83;99943.50;4406698;32;34063;-78
2022/07/15 10:46:18;;;;;;;5.15;2.30;;;;;;;24.49;42.15;99952.53;4404907;32;34449;-78
2022/07/15 10:48:58;;;;;;;6.25;2.15;;;;;;;24.57;40.62;99948.94;4405206;32;33104;-77
2022/07/15 10:51:35;;;;;;;6.43;2.00;;;;;;;24.87;38.64;99963.66;4405910;32;33954;-77
2022/07/15 10:54:09;;;;;;;4.47;2.12;;;;;;;24.99;40.67;99965.28;4407493;32;34808;-79
2022/07/15 10:56:45;;;;;;;4.70;1.65;;;;;;;25.93;38.83;99953.47;4406711;32;35279;-76
2022/07/15 10:59:16;;;;;;;5.00;1.95;;;;;;;26.24;36.75;99960.03;4397294;32;33374;-76
2022/07/15 11:01:45;;;;;;;3.60;1.75;;;;;;;26.35;37.32;99961.59;4404043;32;31656;-78
2022/07/15 11:04:17;;;;;;;5.65;2.15;;;;;;;26.24;33.24;99948.53;4398776;32;33734;-76
2022/07/15 11:07:12;;;;;;;3.25;1.55;;;;;;;25.59;34.28;99949.50;4400589;32;33663;-76
2022/07/15 11:10:02;;;;;;;3.83;1.70;;;;;;;25.48;35.77;99954.09;4398872;32;34268;-76
2022/07/15 11:12:29;;;;;;;6.47;1.80;;;;;;;25.38;34.92;99960.41;4393025;32;34003;-77
2022/07/15 11:15:03;;;;;;;4.15;1.60;;;;;;;25.48;33.64;99951.44;4394716;32;33422;-76
2022/07/15 11:17:34;;;;;;;4.37;2.00;;;;;;;25.69;32.95;99948.47;4406904;32;34520;-75
2022/07/15 11:20:10;;;;;;;6.57;1.83;;;;;;;25.60;32.72;99951.25;4397359;32;33708;-76
2022/07/15 11:22:41;;;;;;;6.35;1.90;;;;;;;25.72;32.71;99949.34;4384898;32;33806;-78
2022/07/15 11:25:39;;;;;;;4.70;2.10;;;;;;;25.09;33.96;99956.31;4399549;32;33901;-77
2022/07/15 11:28:10;;;;;;;3.80;1.80;;;;;;;25.74;32.81;99952.84;4407004;32;34706;-77
2022/07/15 11:30:53;;;;;;;6.03;1.60;;;;;;;25.30;31.86;99945.50;4410228;32;33636;-80
2022/07/15 11:33:25;;;;;;;5.00;1.83;;;;;;;25.79;30.53;99956.31;4407707;32;34696;-78
2022/07/15 11:35:56;;;;;;;4.32;1.75;;;;;;;26.02;30.26;99948.91;4408159;32;34486;-78
2022/07/15 11:38:30;;;;;;;4.53;2.08;;;;;;;25.50;32.38;99952.31;4408184;32;34443;-76
2022/07/15 11:44:29;;;;;;;5.37;1.95;;;;;;;26.04;29.57;99947.09;4401465;32;34619;-78
2022/07/15 11:46:58;;;;;;;4.57;1.80;;;;;;;26.26;30.07;99938.75;4400028;32;34128;-76
2022/07/15 11:49:29;;;;;;;3.37;1.80;;;;;;;26.64;30.19;99942.53;4399078;32;34744;-82
2022/07/15 11:51:57;;;;;;;4.93;1.83;;;;;;;27.00;28.41;99942.72;4395321;32;33840;-81
2022/07/15 11:54:25;;;;;;;4.95;2.00;;;;;;;26.68;28.97;99941.56;4383326;32;34623;-80
2022/07/15 11:57:00;;;;;;;4.78;2.28;;;;;;;26.65;29.00;99949.59;4396685;32;34055;-80
2022/07/15 11:59:28;;;;;;;4.12;1.90;;;;;;;26.26;29.48;99949.38;4399919;32;34016;-82